EGPO

Stornoway Airport

Stornoway, United Kingdom
METAR EGPO 191650Z 34008KT 9999 FEW025 BKN037 15/09 Q1017
Observed Flight Rules
Aug-19 @ 16:50 UTC (24 minutes ago) Visual Flight Rules
Wind Visibility Clouds
340° at 8 knots 10,000+ meters
  • Few at 2,500' AGL
  • Broken at 3,700' AGL
Temperatures Readings
Current 15°C / 59°F
Dewpoint 9°C / 48°F
Humidity 68%
Altimeter 30.03" Hg
Pressure 1017 hPa
Elevation 13
METAR EGPO 191650Z 34008KT 9999 FEW025 BKN037 15/09 Q1017
Observed Flight Rules
Aug-19 @ 16:50 UTC
(24 minutes ago)
VFR
Wind Visibility
340° at 8 knots 10,000+ meters
Clouds
  • Few at 2,500' AGL
  • Broken at 3,700' AGL
Temperature Dewpoint
15°C / 59°F 9°C / 48°F
Humidity Altimeter Pressure
68% 30.03" Hg 1017 hPa